sensor_id;sensor_type;location;lat;lon;timestamp;temperature;humidity
41628;DHT22;27321;50.816;6.054;2024-01-06T00:01:12;8.90;78.80
41628;DHT22;27321;50.816;6.054;2024-01-06T00:04:23;8.90;79.10
41628;DHT22;27321;50.816;6.054;2024-01-06T00:07:30;8.80;79.60
41628;DHT22;27321;50.816;6.054;2024-01-06T00:10:48;8.90;79.40
41628;DHT22;27321;50.816;6.054;2024-01-06T00:13:59;9.00;79.20
41628;DHT22;27321;50.816;6.054;2024-01-06T00:17:29;8.90;79.30
41628;DHT22;27321;50.816;6.054;2024-01-06T00:20:29;9.00;79.60
41628;DHT22;27321;50.816;6.054;2024-01-06T00:23:30;8.90;79.70
41628;DHT22;27321;50.816;6.054;2024-01-06T00:26:32;9.00;79.60
41628;DHT22;27321;50.816;6.054;2024-01-06T00:29:32;9.00;79.60
41628;DHT22;27321;50.816;6.054;2024-01-06T00:32:33;9.00;79.70
41628;DHT22;27321;50.816;6.054;2024-01-06T00:35:34;9.10;79.90
41628;DHT22;27321;50.816;6.054;2024-01-06T00:38:35;9.00;79.60
41628;DHT22;27321;50.816;6.054;2024-01-06T00:41:36;9.00;79.90
41628;DHT22;27321;50.816;6.054;2024-01-06T00:44:37;9.10;79.90
41628;DHT22;27321;50.816;6.054;2024-01-06T00:47:38;9.00;79.90
41628;DHT22;27321;50.816;6.054;2024-01-06T00:50:39;9.10;79.90
41628;DHT22;27321;50.816;6.054;2024-01-06T00:53:40;9.10;79.80
41628;DHT22;27321;50.816;6.054;2024-01-06T00:56:41;9.20;80.00
41628;DHT22;27321;50.816;6.054;2024-01-06T00:59:43;9.20;79.70
41628;DHT22;27321;50.816;6.054;2024-01-06T01:02:44;9.20;79.80
41628;DHT22;27321;50.816;6.054;2024-01-06T01:05:45;9.20;79.80
41628;DHT22;27321;50.816;6.054;2024-01-06T01:08:46;9.20;79.80
41628;DHT22;27321;50.816;6.054;2024-01-06T01:11:47;9.30;79.70
41628;DHT22;27321;50.816;6.054;2024-01-06T01:14:48;9.30;79.60
41628;DHT22;27321;50.816;6.054;2024-01-06T01:17:50;9.30;79.50
41628;DHT22;27321;50.816;6.054;2024-01-06T01:20:51;9.30;79.70
41628;DHT22;27321;50.816;6.054;2024-01-06T03:27:49;9.10;79.90
41628;DHT22;27321;50.816;6.054;2024-01-06T09:06:42;7.20;77.10
41628;DHT22;27321;50.816;6.054;2024-01-06T09:28:46;7.00;76.60
41628;DHT22;27321;50.816;6.054;2024-01-06T09:37:04;7.00;76.90
41628;DHT22;27321;50.816;6.054;2024-01-06T09:40:13;7.00;76.30
41628;DHT22;27321;50.816;6.054;2024-01-06T09:54:35;7.00;76.20
41628;DHT22;27321;50.816;6.054;2024-01-06T09:59:27;7.00;75.90
41628;DHT22;27321;50.816;6.054;2024-01-06T10:02:31;7.00;76.20
41628;DHT22;27321;50.816;6.054;2024-01-06T10:05:32;7.00;75.90
41628;DHT22;27321;50.816;6.054;2024-01-06T10:08:33;7.00;75.60
41628;DHT22;27321;50.816;6.054;2024-01-06T10:11:36;7.00;75.80
41628;DHT22;27321;50.816;6.054;2024-01-06T10:14:37;7.00;75.90
41628;DHT22;27321;50.816;6.054;2024-01-06T10:17:40;7.00;75.20
41628;DHT22;27321;50.816;6.054;2024-01-06T10:20:41;7.00;75.20
41628;DHT22;27321;50.816;6.054;2024-01-06T10:23:45;7.00;75.30
41628;DHT22;27321;50.816;6.054;2024-01-06T10:26:46;7.00;74.90
41628;DHT22;27321;50.816;6.054;2024-01-06T10:29:47;7.00;74.90
41628;DHT22;27321;50.816;6.054;2024-01-06T10:32:49;7.00;75.00
41628;DHT22;27321;50.816;6.054;2024-01-06T10:35:50;7.00;75.00
41628;DHT22;27321;50.816;6.054;2024-01-06T10:38:52;7.00;74.60
41628;DHT22;27321;50.816;6.054;2024-01-06T10:41:55;6.90;74.50
41628;DHT22;27321;50.816;6.054;2024-01-06T10:44:56;6.90;74.50
41628;DHT22;27321;50.816;6.054;2024-01-06T10:47:58;6.90;75.00
41628;DHT22;27321;50.816;6.054;2024-01-06T10:51:00;7.00;75.50
41628;DHT22;27321;50.816;6.054;2024-01-06T10:54:09;7.00;75.00
41628;DHT22;27321;50.816;6.054;2024-01-06T10:57:10;7.00;74.80
41628;DHT22;27321;50.816;6.054;2024-01-06T11:00:12;7.00;73.90
41628;DHT22;27321;50.816;6.054;2024-01-06T11:03:14;7.00;74.60
41628;DHT22;27321;50.816;6.054;2024-01-06T11:06:17;7.10;74.40
41628;DHT22;27321;50.816;6.054;2024-01-06T11:09:30;7.10;74.60
41628;DHT22;27321;50.816;6.054;2024-01-06T11:12:34;7.10;74.30
41628;DHT22;27321;50.816;6.054;2024-01-06T11:15:48;7.10;74.50
41628;DHT22;27321;50.816;6.054;2024-01-06T11:19:00;7.30;74.90
41628;DHT22;27321;50.816;6.054;2024-01-06T11:22:28;7.30;74.70
41628;DHT22;27321;50.816;6.054;2024-01-06T11:25:32;7.30;73.70
41628;DHT22;27321;50.816;6.054;2024-01-06T11:28:50;7.30;74.20
41628;DHT22;27321;50.816;6.054;2024-01-06T11:32:31;7.30;74.20
41628;DHT22;27321;50.816;6.054;2024-01-06T11:35:37;7.30;74.80
41628;DHT22;27321;50.816;6.054;2024-01-06T11:38:41;7.40;75.00
41628;DHT22;27321;50.816;6.054;2024-01-06T11:41:51;7.50;74.70
41628;DHT22;27321;50.816;6.054;2024-01-06T11:44:52;7.50;74.20
41628;DHT22;27321;50.816;6.054;2024-01-06T11:47:58;7.50;74.00
41628;DHT22;27321;50.816;6.054;2024-01-06T11:51:04;7.50;73.70
41628;DHT22;27321;50.816;6.054;2024-01-06T11:54:05;7.40;73.80
41628;DHT22;27321;50.816;6.054;2024-01-06T11:57:06;7.40;74.40
41628;DHT22;27321;50.816;6.054;2024-01-06T12:00:08;7.50;74.80
41628;DHT22;27321;50.816;6.054;2024-01-06T12:03:10;7.60;74.50
41628;DHT22;27321;50.816;6.054;2024-01-06T12:06:12;7.60;74.40
41628;DHT22;27321;50.816;6.054;2024-01-06T12:09:13;7.70;73.90
41628;DHT22;27321;50.816;6.054;2024-01-06T12:12:22;7.60;73.90
41628;DHT22;27321;50.816;6.054;2024-01-06T12:15:34;7.70;73.80
41628;DHT22;27321;50.816;6.054;2024-01-06T12:18:51;7.60;73.80
41628;DHT22;27321;50.816;6.054;2024-01-06T12:21:52;7.70;74.00
41628;DHT22;27321;50.816;6.054;2024-01-06T12:24:53;7.70;74.00
41628;DHT22;27321;50.816;6.054;2024-01-06T12:27:55;7.70;73.40
41628;DHT22;27321;50.816;6.054;2024-01-06T12:30:56;7.60;73.70
41628;DHT22;27321;50.816;6.054;2024-01-06T12:33:57;7.50;74.00
41628;DHT22;27321;50.816;6.054;2024-01-06T12:37:02;7.30;74.20
41628;DHT22;27321;50.816;6.054;2024-01-06T12:40:17;7.30;74.20
41628;DHT22;27321;50.816;6.054;2024-01-06T12:43:38;7.20;74.70
41628;DHT22;27321;50.816;6.054;2024-01-06T12:46:51;7.10;75.20
41628;DHT22;27321;50.816;6.054;2024-01-06T12:50:12;7.20;75.10
41628;DHT22;27321;50.816;6.054;2024-01-06T12:53:44;7.10;74.70
41628;DHT22;27321;50.816;6.054;2024-01-06T12:56:55;6.90;75.20
41628;DHT22;27321;50.816;6.054;2024-01-06T13:00:07;6.80;75.90
41628;DHT22;27321;50.816;6.054;2024-01-06T13:03:36;6.70;76.40
41628;DHT22;27321;50.816;6.054;2024-01-06T13:06:52;6.60;76.40
41628;DHT22;27321;50.816;6.054;2024-01-06T13:14:55;6.50;77.60
41628;DHT22;27321;50.816;6.054;2024-01-06T13:34:20;6.30;78.10
41628;DHT22;27321;50.816;6.054;2024-01-06T13:37:39;6.30;78.00
41628;DHT22;27321;50.816;6.054;2024-01-06T13:45:23;6.30;78.80
41628;DHT22;27321;50.816;6.054;2024-01-06T13:48:24;6.40;78.30
41628;DHT22;27321;50.816;6.054;2024-01-06T13:51:25;6.30;78.50
41628;DHT22;27321;50.816;6.054;2024-01-06T13:54:26;6.30;78.70
41628;DHT22;27321;50.816;6.054;2024-01-06T13:57:27;6.20;78.60
41628;DHT22;27321;50.816;6.054;2024-01-06T14:00:28;6.20;78.70
41628;DHT22;27321;50.816;6.054;2024-01-06T14:03:29;6.20;79.20
41628;DHT22;27321;50.816;6.054;2024-01-06T14:06:33;6.10;79.00
41628;DHT22;27321;50.816;6.054;2024-01-06T14:09:34;6.20;79.30
41628;DHT22;27321;50.816;6.054;2024-01-06T14:12:35;6.10;79.10
41628;DHT22;27321;50.816;6.054;2024-01-06T14:15:36;6.10;79.20
41628;DHT22;27321;50.816;6.054;2024-01-06T14:18:37;6.10;79.40
41628;DHT22;27321;50.816;6.054;2024-01-06T14:21:38;6.10;79.10
41628;DHT22;27321;50.816;6.054;2024-01-06T14:24:39;6.10;79.00
41628;DHT22;27321;50.816;6.054;2024-01-06T14:27:44;6.00;78.10
41628;DHT22;27321;50.816;6.054;2024-01-06T14:30:48;6.00;78.60
41628;DHT22;27321;50.816;6.054;2024-01-06T14:33:49;6.00;78.30
41628;DHT22;27321;50.816;6.054;2024-01-06T14:36:50;6.00;78.30
41628;DHT22;27321;50.816;6.054;2024-01-06T14:39:51;5.90;78.20
41628;DHT22;27321;50.816;6.054;2024-01-06T14:42:52;5.80;78.20
41628;DHT22;27321;50.816;6.054;2024-01-06T14:45:53;5.80;78.50
41628;DHT22;27321;50.816;6.054;2024-01-06T14:48:54;5.70;78.60
41628;DHT22;27321;50.816;6.054;2024-01-06T14:51:55;5.70;78.40
41628;DHT22;27321;50.816;6.054;2024-01-06T14:54:56;5.70;78.40
41628;DHT22;27321;50.816;6.054;2024-01-06T14:57:57;5.60;78.70
41628;DHT22;27321;50.816;6.054;2024-01-06T15:00:58;5.60;78.90
41628;DHT22;27321;50.816;6.054;2024-01-06T15:04:00;5.60;78.80
41628;DHT22;27321;50.816;6.054;2024-01-06T15:07:03;5.60;78.80
41628;DHT22;27321;50.816;6.054;2024-01-06T15:10:05;5.50;78.80
41628;DHT22;27321;50.816;6.054;2024-01-06T15:13:06;5.50;79.00
41628;DHT22;27321;50.816;6.054;2024-01-06T15:16:07;5.50;79.00
41628;DHT22;27321;50.816;6.054;2024-01-06T15:19:08;5.50;79.20
41628;DHT22;27321;50.816;6.054;2024-01-06T15:22:09;5.60;79.00
41628;DHT22;27321;50.816;6.054;2024-01-06T15:25:13;5.60;78.90
41628;DHT22;27321;50.816;6.054;2024-01-06T15:28:14;5.60;78.80
41628;DHT22;27321;50.816;6.054;2024-01-06T15:31:18;5.70;78.70
41628;DHT22;27321;50.816;6.054;2024-01-06T15:34:19;5.70;78.70
41628;DHT22;27321;50.816;6.054;2024-01-06T15:37:20;5.70;78.40
41628;DHT22;27321;50.816;6.054;2024-01-06T15:40:25;5.70;78.50
41628;DHT22;27321;50.816;6.054;2024-01-06T15:43:26;5.70;78.50
41628;DHT22;27321;50.816;6.054;2024-01-06T15:46:27;5.70;78.70
41628;DHT22;27321;50.816;6.054;2024-01-06T15:49:28;5.70;78.90
41628;DHT22;27321;50.816;6.054;2024-01-06T15:52:30;5.60;78.70
41628;DHT22;27321;50.816;6.054;2024-01-06T15:55:31;5.60;79.00
41628;DHT22;27321;50.816;6.054;2024-01-06T15:58:32;5.60;79.10
41628;DHT22;27321;50.816;6.054;2024-01-06T16:01:33;5.70;79.10
41628;DHT22;27321;50.816;6.054;2024-01-06T16:04:34;5.70;78.90
41628;DHT22;27321;50.816;6.054;2024-01-06T16:07:35;5.70;78.80
41628;DHT22;27321;50.816;6.054;2024-01-06T16:10:36;5.60;78.60
41628;DHT22;27321;50.816;6.054;2024-01-06T16:13:39;5.60;78.70
41628;DHT22;27321;50.816;6.054;2024-01-06T16:16:39;5.60;78.70
41628;DHT22;27321;50.816;6.054;2024-01-06T16:19:40;5.50;78.80
41628;DHT22;27321;50.816;6.054;2024-01-06T16:22:44;5.50;79.30
41628;DHT22;27321;50.816;6.054;2024-01-06T16:25:46;5.40;78.70
41628;DHT22;27321;50.816;6.054;2024-01-06T16:28:47;5.40;79.00
41628;DHT22;27321;50.816;6.054;2024-01-06T16:31:48;5.40;79.30
41628;DHT22;27321;50.816;6.054;2024-01-06T16:34:49;5.50;78.90
41628;DHT22;27321;50.816;6.054;2024-01-06T16:37:51;5.50;79.00
41628;DHT22;27321;50.816;6.054;2024-01-06T16:40:54;5.50;78.60
41628;DHT22;27321;50.816;6.054;2024-01-06T16:43:56;5.50;78.40
41628;DHT22;27321;50.816;6.054;2024-01-06T16:46:57;5.40;78.50
41628;DHT22;27321;50.816;6.054;2024-01-06T16:49:59;5.40;78.40
41628;DHT22;27321;50.816;6.054;2024-01-06T16:53:00;5.40;78.70
41628;DHT22;27321;50.816;6.054;2024-01-06T16:56:03;5.30;78.10
41628;DHT22;27321;50.816;6.054;2024-01-06T16:59:05;5.30;78.30
41628;DHT22;27321;50.816;6.054;2024-01-06T17:02:06;5.20;78.50
41628;DHT22;27321;50.816;6.054;2024-01-06T17:05:08;5.20;78.40
41628;DHT22;27321;50.816;6.054;2024-01-06T17:08:09;5.20;78.50
41628;DHT22;27321;50.816;6.054;2024-01-06T17:11:10;5.10;78.30
41628;DHT22;27321;50.816;6.054;2024-01-06T17:14:11;5.10;78.70
41628;DHT22;27321;50.816;6.054;2024-01-06T17:17:12;5.10;78.80
41628;DHT22;27321;50.816;6.054;2024-01-06T17:20:13;5.10;78.90
41628;DHT22;27321;50.816;6.054;2024-01-06T17:23:14;5.10;79.00
41628;DHT22;27321;50.816;6.054;2024-01-06T17:26:15;5.10;78.90
41628;DHT22;27321;50.816;6.054;2024-01-06T17:29:16;5.10;79.30
41628;DHT22;27321;50.816;6.054;2024-01-06T17:32:18;5.20;79.00
41628;DHT22;27321;50.816;6.054;2024-01-06T17:35:19;5.20;78.60
41628;DHT22;27321;50.816;6.054;2024-01-06T17:38:20;5.20;78.50
41628;DHT22;27321;50.816;6.054;2024-01-06T17:41:21;5.20;78.70
41628;DHT22;27321;50.816;6.054;2024-01-06T17:44:22;5.10;79.00
41628;DHT22;27321;50.816;6.054;2024-01-06T17:47:24;5.20;78.50
41628;DHT22;27321;50.816;6.054;2024-01-06T17:50:25;5.20;78.60
41628;DHT22;27321;50.816;6.054;2024-01-06T17:53:27;5.20;78.60
41628;DHT22;27321;50.816;6.054;2024-01-06T17:56:28;5.10;78.60
41628;DHT22;27321;50.816;6.054;2024-01-06T17:59:30;5.20;78.90
41628;DHT22;27321;50.816;6.054;2024-01-06T18:02:31;5.20;78.80
41628;DHT22;27321;50.816;6.054;2024-01-06T18:05:32;5.20;78.70
41628;DHT22;27321;50.816;6.054;2024-01-06T18:08:36;5.30;78.60
41628;DHT22;27321;50.816;6.054;2024-01-06T18:11:37;5.20;78.70
41628;DHT22;27321;50.816;6.054;2024-01-06T18:14:39;5.20;78.70
41628;DHT22;27321;50.816;6.054;2024-01-06T18:17:43;5.20;78.50
41628;DHT22;27321;50.816;6.054;2024-01-06T18:20:44;5.10;78.60
41628;DHT22;27321;50.816;6.054;2024-01-06T18:23:45;5.10;78.60
41628;DHT22;27321;50.816;6.054;2024-01-06T18:26:46;5.00;78.70
41628;DHT22;27321;50.816;6.054;2024-01-06T18:29:47;5.00;78.70
41628;DHT22;27321;50.816;6.054;2024-01-06T18:32:48;5.00;79.00
41628;DHT22;27321;50.816;6.054;2024-01-06T18:35:51;5.00;79.10
41628;DHT22;27321;50.816;6.054;2024-01-06T18:38:52;4.90;79.10
41628;DHT22;27321;50.816;6.054;2024-01-06T18:41:53;4.90;79.00
41628;DHT22;27321;50.816;6.054;2024-01-06T18:44:55;4.90;79.20
41628;DHT22;27321;50.816;6.054;2024-01-06T18:47:56;4.90;79.00
41628;DHT22;27321;50.816;6.054;2024-01-06T18:51:00;4.90;79.20
41628;DHT22;27321;50.816;6.054;2024-01-06T18:54:07;5.00;79.20
41628;DHT22;27321;50.816;6.054;2024-01-06T18:57:12;5.00;79.00
41628;DHT22;27321;50.816;6.054;2024-01-06T19:00:14;5.00;78.70
41628;DHT22;27321;50.816;6.054;2024-01-06T19:03:18;5.10;78.60
41628;DHT22;27321;50.816;6.054;2024-01-06T19:06:19;5.10;78.60
41628;DHT22;27321;50.816;6.054;2024-01-06T19:09:21;5.10;78.50
41628;DHT22;27321;50.816;6.054;2024-01-06T19:12:23;5.10;78.50
41628;DHT22;27321;50.816;6.054;2024-01-06T19:15:25;5.20;78.60
41628;DHT22;27321;50.816;6.054;2024-01-06T19:18:26;5.20;78.10
41628;DHT22;27321;50.816;6.054;2024-01-06T19:21:27;5.20;78.50
41628;DHT22;27321;50.816;6.054;2024-01-06T19:24:28;5.20;78.50
41628;DHT22;27321;50.816;6.054;2024-01-06T19:27:29;5.10;78.30
41628;DHT22;27321;50.816;6.054;2024-01-06T19:30:32;5.10;78.20
41628;DHT22;27321;50.816;6.054;2024-01-06T19:33:37;5.10;78.60
41628;DHT22;27321;50.816;6.054;2024-01-06T19:36:38;5.00;78.60
41628;DHT22;27321;50.816;6.054;2024-01-06T19:39:39;4.90;78.80
41628;DHT22;27321;50.816;6.054;2024-01-06T19:42:40;4.90;78.80
41628;DHT22;27321;50.816;6.054;2024-01-06T19:45:44;4.90;79.00
41628;DHT22;27321;50.816;6.054;2024-01-06T19:48:47;5.00;79.00
41628;DHT22;27321;50.816;6.054;2024-01-06T19:51:48;5.00;79.00
41628;DHT22;27321;50.816;6.054;2024-01-06T19:54:50;5.10;79.10
41628;DHT22;27321;50.816;6.054;2024-01-06T19:57:52;5.10;78.90
41628;DHT22;27321;50.816;6.054;2024-01-06T20:00:53;5.10;78.40
41628;DHT22;27321;50.816;6.054;2024-01-06T20:03:54;5.10;78.50
41628;DHT22;27321;50.816;6.054;2024-01-06T20:06:55;5.10;78.70
41628;DHT22;27321;50.816;6.054;2024-01-06T20:09:56;5.10;79.00
41628;DHT22;27321;50.816;6.054;2024-01-06T20:12:57;5.10;78.60
41628;DHT22;27321;50.816;6.054;2024-01-06T20:16:03;5.10;78.50
41628;DHT22;27321;50.816;6.054;2024-01-06T20:19:08;5.20;78.60
41628;DHT22;27321;50.816;6.054;2024-01-06T20:22:09;5.10;78.40
41628;DHT22;27321;50.816;6.054;2024-01-06T20:25:11;5.10;78.10
41628;DHT22;27321;50.816;6.054;2024-01-06T20:28:12;5.10;78.50
41628;DHT22;27321;50.816;6.054;2024-01-06T20:31:14;5.10;78.60
41628;DHT22;27321;50.816;6.054;2024-01-06T20:34:15;5.10;78.70
41628;DHT22;27321;50.816;6.054;2024-01-06T20:37:16;5.10;78.70
41628;DHT22;27321;50.816;6.054;2024-01-06T20:40:17;5.20;78.40
41628;DHT22;27321;50.816;6.054;2024-01-06T20:43:18;5.20;78.30
41628;DHT22;27321;50.816;6.054;2024-01-06T20:46:19;5.30;77.90
41628;DHT22;27321;50.816;6.054;2024-01-06T20:49:22;5.20;78.00
41628;DHT22;27321;50.816;6.054;2024-01-06T20:52:25;5.20;77.90
41628;DHT22;27321;50.816;6.054;2024-01-06T20:55:26;5.10;78.00
41628;DHT22;27321;50.816;6.054;2024-01-06T20:58:27;5.00;78.10
41628;DHT22;27321;50.816;6.054;2024-01-06T21:01:28;5.00;78.20
41628;DHT22;27321;50.816;6.054;2024-01-06T21:04:32;5.00;78.10
41628;DHT22;27321;50.816;6.054;2024-01-06T21:07:34;4.90;78.30
41628;DHT22;27321;50.816;6.054;2024-01-06T21:10:35;4.80;78.10
41628;DHT22;27321;50.816;6.054;2024-01-06T21:13:39;4.80;78.00
41628;DHT22;27321;50.816;6.054;2024-01-06T21:16:40;4.80;78.10
41628;DHT22;27321;50.816;6.054;2024-01-06T21:19:41;4.70;78.60
41628;DHT22;27321;50.816;6.054;2024-01-06T21:22:43;4.80;78.40
41628;DHT22;27321;50.816;6.054;2024-01-06T21:25:44;4.80;78.30
41628;DHT22;27321;50.816;6.054;2024-01-06T21:28:47;4.80;78.30
41628;DHT22;27321;50.816;6.054;2024-01-06T21:31:48;4.80;78.30
41628;DHT22;27321;50.816;6.054;2024-01-06T21:34:49;4.80;78.20
41628;DHT22;27321;50.816;6.054;2024-01-06T21:37:53;4.80;78.60
41628;DHT22;27321;50.816;6.054;2024-01-06T21:40:54;4.90;78.40
41628;DHT22;27321;50.816;6.054;2024-01-06T21:43:55;5.00;78.10
41628;DHT22;27321;50.816;6.054;2024-01-06T21:46:56;5.00;77.90
41628;DHT22;27321;50.816;6.054;2024-01-06T21:49:57;5.10;77.60
41628;DHT22;27321;50.816;6.054;2024-01-06T21:52:59;5.10;77.20
41628;DHT22;27321;50.816;6.054;2024-01-06T21:56:00;5.00;77.10
41628;DHT22;27321;50.816;6.054;2024-01-06T21:59:06;5.00;77.00
41628;DHT22;27321;50.816;6.054;2024-01-06T22:02:08;5.00;77.20
41628;DHT22;27321;50.816;6.054;2024-01-06T22:05:08;5.00;76.90
41628;DHT22;27321;50.816;6.054;2024-01-06T22:08:10;5.00;76.80
41628;DHT22;27321;50.816;6.054;2024-01-06T22:11:10;5.00;76.80
41628;DHT22;27321;50.816;6.054;2024-01-06T22:14:12;5.00;77.00
41628;DHT22;27321;50.816;6.054;2024-01-06T22:17:17;5.00;76.60
41628;DHT22;27321;50.816;6.054;2024-01-06T22:20:19;4.90;76.70
41628;DHT22;27321;50.816;6.054;2024-01-06T22:23:20;4.90;76.70
41628;DHT22;27321;50.816;6.054;2024-01-06T22:26:21;4.80;77.10
41628;DHT22;27321;50.816;6.054;2024-01-06T22:29:23;4.80;77.00
41628;DHT22;27321;50.816;6.054;2024-01-06T22:32:24;4.80;77.20
41628;DHT22;27321;50.816;6.054;2024-01-06T22:35:26;4.90;77.20
41628;DHT22;27321;50.816;6.054;2024-01-06T22:38:28;4.90;76.90
41628;DHT22;27321;50.816;6.054;2024-01-06T22:41:29;4.90;76.80
41628;DHT22;27321;50.816;6.054;2024-01-06T22:44:30;4.80;77.00
41628;DHT22;27321;50.816;6.054;2024-01-06T22:47:34;4.80;76.70
41628;DHT22;27321;50.816;6.054;2024-01-06T22:50:35;4.70;77.20
41628;DHT22;27321;50.816;6.054;2024-01-06T22:53:36;4.70;76.90
41628;DHT22;27321;50.816;6.054;2024-01-06T22:56:37;4.60;77.20
41628;DHT22;27321;50.816;6.054;2024-01-06T22:59:41;4.70;77.10
41628;DHT22;27321;50.816;6.054;2024-01-06T23:02:43;4.70;77.20
41628;DHT22;27321;50.816;6.054;2024-01-06T23:05:44;4.70;77.30
41628;DHT22;27321;50.816;6.054;2024-01-06T23:08:47;4.80;77.00
41628;DHT22;27321;50.816;6.054;2024-01-06T23:11:48;4.80;77.20
41628;DHT22;27321;50.816;6.054;2024-01-06T23:14:52;4.80;76.90
41628;DHT22;27321;50.816;6.054;2024-01-06T23:17:53;4.70;77.00
41628;DHT22;27321;50.816;6.054;2024-01-06T23:20:54;4.70;76.70
41628;DHT22;27321;50.816;6.054;2024-01-06T23:23:55;4.70;76.80
41628;DHT22;27321;50.816;6.054;2024-01-06T23:26:56;4.60;76.50
41628;DHT22;27321;50.816;6.054;2024-01-06T23:29:57;4.60;76.50
41628;DHT22;27321;50.816;6.054;2024-01-06T23:32:58;4.60;76.80
41628;DHT22;27321;50.816;6.054;2024-01-06T23:35:59;4.50;76.70
41628;DHT22;27321;50.816;6.054;2024-01-06T23:39:00;4.50;77.00
41628;DHT22;27321;50.816;6.054;2024-01-06T23:42:04;4.50;77.30
41628;DHT22;27321;50.816;6.054;2024-01-06T23:45:05;4.60;77.10
41628;DHT22;27321;50.816;6.054;2024-01-06T23:48:07;4.60;76.90
41628;DHT22;27321;50.816;6.054;2024-01-06T23:51:15;4.60;76.80
41628;DHT22;27321;50.816;6.054;2024-01-06T23:54:17;4.60;77.20
41628;DHT22;27321;50.816;6.054;2024-01-06T23:57:18;4.60;77.10
